Time;durP1;ratioP1;P1;durP2;ratioP2;P2;SDS_P1;SDS_P2;PMS_P1;PMS_P2;Temp;Humidity;BMP_temperature;BMP_pressure;BME280_temperature;BME280_humidity;BME280_pressure;Samples;Min_cycle;Max_cycle;Signal;HPM_P1;HPM_P2
2021/10/08 00:01:40;;;;;;;4.97;3.88;;;11.00;92.20;;;;;;4989024;28;20069;-84
2021/10/08 00:04:06;;;;;;;6.35;3.42;;;11.00;92.20;;;;;;4986005;28;20030;-84
2021/10/08 00:06:32;;;;;;;4.00;3.35;;;11.00;92.10;;;;;;4988246;28;20030;-84
2021/10/08 00:08:58;;;;;;;6.25;3.88;;;11.00;92.20;;;;;;4994948;28;20061;-84
2021/10/08 00:11:24;;;;;;;4.57;3.65;;;11.00;92.20;;;;;;4987153;28;20417;-84
2021/10/08 00:13:50;;;;;;;4.93;3.35;;;11.00;92.20;;;;;;4991984;28;20041;-84
2021/10/08 00:16:16;;;;;;;6.47;4.15;;;11.00;92.30;;;;;;4992693;28;20038;-84
2021/10/08 00:18:41;;;;;;;6.30;3.80;;;11.00;92.30;;;;;;4989037;28;20064;-84
2021/10/08 00:21:08;;;;;;;4.70;3.45;;;11.00;92.30;;;;;;4990326;28;20969;-84
2021/10/08 00:23:35;;;;;;;5.20;3.88;;;11.00;92.30;;;;;;4989935;28;20018;-84
2021/10/08 00:26:01;;;;;;;5.57;3.75;;;11.00;92.20;;;;;;4989901;28;20038;-83
2021/10/08 00:28:27;;;;;;;4.78;3.67;;;11.00;92.60;;;;;;4988901;28;20392;-84
2021/10/08 00:30:53;;;;;;;5.53;3.97;;;11.00;92.10;;;;;;4989862;28;20041;-83
2021/10/08 00:33:18;;;;;;;5.03;3.55;;;11.00;92.00;;;;;;4988491;28;20046;-84
2021/10/08 00:35:44;;;;;;;5.80;3.55;;;11.00;91.90;;;;;;4987924;28;20026;-84
2021/10/08 00:38:10;;;;;;;4.30;3.80;;;11.00;91.90;;;;;;4990238;28;20050;-84
2021/10/08 00:40:37;;;;;;;7.38;4.05;;;11.00;92.10;;;;;;4991124;28;20129;-84
2021/10/08 00:43:04;;;;;;;6.28;3.65;;;11.10;91.90;;;;;;4993717;28;20026;-84
2021/10/08 00:45:30;;;;;;;6.20;3.83;;;11.00;92.10;;;;;;5001161;28;20026;-84
2021/10/08 00:48:07;;;;;;;6.63;4.13;;;11.00;92.10;;;;;;4993049;28;20031;-84
2021/10/08 00:50:42;;;;;;;5.55;3.70;;;11.10;92.00;;;;;;4995727;28;20064;-84
2021/10/08 00:53:08;;;;;;;5.18;3.15;;;11.10;92.20;;;;;;4998231;28;20505;-84
2021/10/08 00:55:34;;;;;;;4.75;3.58;;;11.00;92.40;;;;;;5005754;28;20069;-84
2021/10/08 00:58:00;;;;;;;9.63;3.90;;;11.00;92.40;;;;;;5005967;28;20034;-84
2021/10/08 01:00:27;;;;;;;6.00;4.03;;;11.10;92.40;;;;;;5016827;28;20049;-84
2021/10/08 01:02:52;;;;;;;6.30;4.00;;;11.00;92.40;;;;;;4994904;28;20054;-84
2021/10/08 01:05:18;;;;;;;5.80;4.00;;;11.00;92.50;;;;;;4992158;28;20066;-84
2021/10/08 01:07:44;;;;;;;4.95;3.90;;;11.00;92.50;;;;;;4996892;28;20018;-84
2021/10/08 01:10:10;;;;;;;4.65;3.40;;;11.00;92.60;;;;;;4995371;28;20065;-84
2021/10/08 01:12:39;;;;;;;4.50;3.60;;;11.00;92.50;;;;;;4994553;28;20400;-84
2021/10/08 01:15:06;;;;;;;6.57;3.95;;;10.90;92.50;;;;;;5004206;28;20552;-84
2021/10/08 01:17:32;;;;;;;5.30;4.07;;;10.90;92.50;;;;;;4994991;28;20500;-84
2021/10/08 01:20:08;;;;;;;5.75;4.15;;;11.00;92.50;;;;;;4993351;28;20026;-84
2021/10/08 01:22:34;;;;;;;6.97;3.83;;;10.90;92.50;;;;;;5009352;28;20026;-84
2021/10/08 01:24:59;;;;;;;5.20;4.10;;;10.90;92.50;;;;;;4984002;28;20494;-84
2021/10/08 01:27:25;;;;;;;4.90;3.97;;;10.90;92.40;;;;;;4993093;28;20042;-84
2021/10/08 01:29:53;;;;;;;4.18;3.70;;;10.90;92.50;;;;;;4994076;28;20034;-84
2021/10/08 01:32:20;;;;;;;4.50;3.80;;;10.90;92.50;;;;;;4989614;28;20038;-84
2021/10/08 01:34:46;;;;;;;5.55;3.90;;;10.90;92.50;;;;;;4992449;28;20034;-84
2021/10/08 01:37:13;;;;;;;5.68;4.30;;;10.90;92.40;;;;;;4992811;28;20029;-84
2021/10/08 01:39:39;;;;;;;5.20;3.75;;;10.90;92.40;;;;;;4994897;28;20033;-84
2021/10/08 01:42:06;;;;;;;5.95;3.92;;;10.90;92.50;;;;;;4995270;28;20030;-84
2021/10/08 01:44:31;;;;;;;6.05;3.83;;;10.90;92.50;;;;;;4988120;28;20022;-84
2021/10/08 01:46:57;;;;;;;5.03;3.80;;;10.90;93.00;;;;;;4998679;28;20039;-84
2021/10/08 01:49:23;;;;;;;7.45;4.03;;;10.80;92.80;;;;;;4998293;28;20030;-84
2021/10/08 01:51:48;;;;;;;6.32;4.32;;;10.80;92.90;;;;;;5001251;28;20027;-84
2021/10/08 01:54:14;;;;;;;6.05;3.78;;;10.80;93.00;;;;;;4995527;28;20121;-84
2021/10/08 01:56:44;;;;;;;4.45;3.70;;;10.80;93.10;;;;;;4987984;28;20035;-84
2021/10/08 01:59:13;;;;;;;5.95;4.15;;;10.80;93.10;;;;;;4987697;28;20029;-84
2021/10/08 02:01:40;;;;;;;6.63;4.13;;;10.70;93.20;;;;;;4985078;28;20041;-83
2021/10/08 02:04:06;;;;;;;5.35;4.10;;;10.70;93.30;;;;;;4988178;28;20035;-84
2021/10/08 02:06:31;;;;;;;8.15;4.70;;;10.70;93.50;;;;;;5005183;28;20034;-84
2021/10/08 02:08:57;;;;;;;4.65;3.55;;;10.70;93.60;;;;;;5000903;28;20033;-84
2021/10/08 02:11:23;;;;;;;5.80;4.38;;;10.70;93.70;;;;;;4997765;28;20145;-84
2021/10/08 02:13:48;;;;;;;5.43;3.97;;;10.70;93.90;;;;;;4999395;28;20034;-84
2021/10/08 02:16:14;;;;;;;5.20;4.25;;;10.60;94.10;;;;;;4985168;28;20054;-83
2021/10/08 02:18:40;;;;;;;6.53;4.03;;;10.60;94.10;;;;;;4990917;28;20477;-83
2021/10/08 02:21:06;;;;;;;7.68;4.25;;;10.60;94.20;;;;;;4993735;28;20065;-84
2021/10/08 02:23:32;;;;;;;7.53;4.50;;;10.60;94.30;;;;;;4991774;28;20085;-84
2021/10/08 02:25:57;;;;;;;5.85;4.25;;;10.60;94.40;;;;;;5011566;28;20505;-83
2021/10/08 02:28:23;;;;;;;5.53;3.80;;;10.60;94.50;;;;;;4999668;28;20536;-84
2021/10/08 02:30:49;;;;;;;5.95;4.35;;;10.60;94.60;;;;;;4993007;28;20026;-84
2021/10/08 02:33:14;;;;;;;8.07;4.65;;;10.60;94.50;;;;;;4993695;28;20079;-84
2021/10/08 02:35:40;;;;;;;5.00;4.32;;;10.60;94.60;;;;;;4990664;28;20502;-84
2021/10/08 02:38:06;;;;;;;5.18;4.32;;;10.70;94.60;;;;;;4992402;28;20030;-84
2021/10/08 02:40:32;;;;;;;6.32;4.00;;;10.60;94.70;;;;;;4993366;28;20026;-84
2021/10/08 02:42:58;;;;;;;6.35;4.70;;;10.70;94.70;;;;;;4992818;28;20520;-84
2021/10/08 02:45:23;;;;;;;6.22;4.35;;;10.60;94.80;;;;;;4998432;28;20109;-84
2021/10/08 02:47:49;;;;;;;6.68;3.97;;;10.60;94.90;;;;;;4993790;28;20043;-84
2021/10/08 02:50:16;;;;;;;5.43;4.13;;;10.60;94.80;;;;;;4994299;28;20058;-84
2021/10/08 02:52:42;;;;;;;6.68;5.18;;;10.60;94.80;;;;;;4991804;28;20117;-83
2021/10/08 02:55:08;;;;;;;5.38;4.35;;;10.60;94.80;;;;;;4996060;28;20041;-84
2021/10/08 02:57:37;;;;;;;7.00;4.40;;;10.60;94.70;;;;;;4992590;28;20785;-83
2021/10/08 03:00:08;;;;;;;5.95;4.47;;;10.50;94.80;;;;;;4993720;28;20021;-84
2021/10/08 03:02:34;;;;;;;8.90;5.25;;;10.60;95.00;;;;;;4991166;28;20113;-84
2021/10/08 03:05:00;;;;;;;6.80;4.65;;;10.50;95.10;;;;;;4991408;28;20094;-84
2021/10/08 03:07:26;;;;;;;5.75;4.35;;;10.50;95.10;;;;;;4992425;28;20457;-84
2021/10/08 03:09:53;;;;;;;6.30;4.70;;;10.50;95.30;;;;;;4993245;28;20030;-84
2021/10/08 03:12:18;;;;;;;8.10;4.90;;;10.50;95.30;;;;;;4991167;28;20054;-84
2021/10/08 03:14:44;;;;;;;6.90;4.90;;;10.50;95.70;;;;;;5000017;28;20026;-83
2021/10/08 03:17:10;;;;;;;7.75;5.05;;;10.50;95.30;;;;;;4995086;28;20118;-84
2021/10/08 03:19:35;;;;;;;8.40;5.90;;;10.50;95.20;;;;;;4993208;28;20030;-84
2021/10/08 03:22:01;;;;;;;8.65;5.20;;;10.50;94.90;;;;;;4993182;28;20030;-84
2021/10/08 03:24:27;;;;;;;7.10;5.45;;;10.50;94.60;;;;;;4990675;28;20028;-84
2021/10/08 03:26:52;;;;;;;9.05;5.65;;;10.50;94.70;;;;;;5001408;28;20037;-84
2021/10/08 03:29:18;;;;;;;6.40;5.00;;;10.60;94.50;;;;;;4994820;28;20441;-83
2021/10/08 03:31:44;;;;;;;9.88;6.03;;;10.60;94.20;;;;;;4990115;28;20038;-83
2021/10/08 03:34:09;;;;;;;11.80;5.63;;;10.60;94.20;;;;;;4989328;28;20030;-83
2021/10/08 03:36:43;;;;;;;11.30;5.68;;;10.60;94.10;;;;;;4996542;28;20150;-83
2021/10/08 03:39:12;;;;;;;9.50;6.25;;;10.60;94.30;;;;;;4991498;28;20773;-83
2021/10/08 03:41:39;;;;;;;7.53;5.70;;;10.60;94.30;;;;;;4985312;28;20023;-83
2021/10/08 03:44:06;;;;;;;10.88;5.82;;;10.60;94.30;;;;;;4991951;28;20040;-83
2021/10/08 03:46:39;;;;;;;10.23;6.28;;;10.60;94.30;;;;;;4992378;28;20030;-83
2021/10/08 03:51:32;;;;;;;8.52;6.03;;;10.60;94.30;;;;;;4981993;28;20050;-83
2021/10/08 03:53:58;;;;;;;8.20;5.68;;;10.60;94.30;;;;;;4995599;28;20037;-83
2021/10/08 03:56:25;;;;;;;7.18;5.55;;;10.60;94.50;;;;;;4990902;28;20022;-84
2021/10/08 03:58:50;;;;;;;8.38;6.22;;;10.60;94.60;;;;;;4988311;28;20030;-84
2021/10/08 04:01:16;;;;;;;7.95;5.30;;;10.60;94.60;;;;;;4990568;28;20080;-84
2021/10/08 04:03:42;;;;;;;8.13;5.45;;;10.60;94.70;;;;;;4989478;28;20030;-84
2021/10/08 04:06:07;;;;;;;10.20;5.88;;;10.60;94.80;;;;;;4987078;28;20054;-84
2021/10/08 04:08:33;;;;;;;8.75;6.45;;;10.60;94.70;;;;;;5000503;28;20029;-84
2021/10/08 04:10:59;;;;;;;7.95;5.50;;;10.60;94.90;;;;;;4993336;28;20497;-84
2021/10/08 04:13:25;;;;;;;13.10;6.93;;;10.60;94.90;;;;;;4990569;28;20392;-84
2021/10/08 04:15:50;;;;;;;9.65;6.03;;;10.60;94.90;;;;;;4986039;28;20606;-84
2021/10/08 04:18:16;;;;;;;9.77;5.68;;;10.60;95.40;;;;;;4990196;28;20034;-84
2021/10/08 04:20:42;;;;;;;8.68;6.07;;;10.60;95.10;;;;;;4991273;28;20085;-84
2021/10/08 04:23:08;;;;;;;9.00;5.72;;;10.50;95.10;;;;;;4981067;28;20041;-84
2021/10/08 04:25:35;;;;;;;8.95;6.43;;;10.60;95.20;;;;;;4996479;28;20019;-84
2021/10/08 04:28:00;;;;;;;10.63;6.07;;;10.50;95.40;;;;;;4990256;28;20030;-83
2021/10/08 04:30:26;;;;;;;11.60;7.05;;;10.60;95.60;;;;;;4994757;28;20382;-83
2021/10/08 04:32:52;;;;;;;9.82;6.38;;;10.50;95.60;;;;;;4997513;28;20482;-83
2021/10/08 04:35:17;;;;;;;9.52;5.93;;;10.50;95.60;;;;;;4994802;28;20446;-83
2021/10/08 04:37:43;;;;;;;10.02;6.05;;;10.50;95.50;;;;;;4995562;28;20054;-83
2021/10/08 04:40:10;;;;;;;8.13;6.07;;;10.50;95.50;;;;;;4995961;28;20085;-83
2021/10/08 04:42:35;;;;;;;8.80;6.25;;;10.50;95.60;;;;;;4998165;28;20947;-83
2021/10/08 04:45:03;;;;;;;8.88;5.85;;;10.50;95.70;;;;;;4999562;28;20124;-83
2021/10/08 04:47:31;;;;;;;9.60;5.93;;;10.40;95.70;;;;;;4994732;28;20078;-83
2021/10/08 04:49:57;;;;;;;;;;;10.40;95.70;;;;;;4992507;28;20033;-83
2021/10/08 04:52:22;;;;;;;8.07;6.00;;;10.40;95.70;;;;;;4994743;28;19921;-83
2021/10/08 04:54:48;;;;;;;8.13;6.13;;;10.40;95.80;;;;;;4995634;28;20062;-83
2021/10/08 04:57:14;;;;;;;8.98;6.05;;;10.40;95.90;;;;;;5007459;28;20022;-83
2021/10/08 04:59:40;;;;;;;8.52;5.95;;;10.40;95.80;;;;;;4994641;28;20485;-83
2021/10/08 05:02:06;;;;;;;8.02;6.35;;;10.40;95.80;;;;;;4995997;28;20031;-83
2021/10/08 05:04:31;;;;;;;11.75;6.78;;;10.40;95.90;;;;;;4990227;28;20029;-83
2021/10/08 05:06:57;;;;;;;9.23;6.05;;;10.40;96.10;;;;;;4996100;28;20030;-83
2021/10/08 05:09:23;;;;;;;9.00;6.78;;;10.40;96.20;;;;;;5002218;28;20026;-83
2021/10/08 05:11:49;;;;;;;12.23;6.28;;;10.40;96.20;;;;;;4995796;28;20057;-83
2021/10/08 05:14:14;;;;;;;11.63;7.10;;;10.40;96.10;;;;;;4993238;28;20029;-83
2021/10/08 05:16:40;;;;;;;8.35;6.70;;;10.40;96.20;;;;;;4999632;28;20129;-83
2021/10/08 05:19:06;;;;;;;10.35;6.65;;;10.40;96.10;;;;;;4984110;28;20573;-83
2021/10/08 05:21:33;;;;;;;10.82;6.82;;;10.40;96.10;;;;;;4992345;28;20022;-83
2021/10/08 05:23:58;;;;;;;10.52;7.07;;;10.40;96.10;;;;;;4994960;28;20517;-83
2021/10/08 05:26:24;;;;;;;10.38;6.45;;;10.40;96.00;;;;;;4995611;28;20026;-83
2021/10/08 05:28:49;;;;;;;9.18;6.15;;;10.40;96.10;;;;;;4995713;28;20118;-83
2021/10/08 05:31:15;;;;;;;10.15;6.90;;;10.40;96.20;;;;;;4990146;28;20030;-84
2021/10/08 05:33:41;;;;;;;10.25;6.85;;;10.40;96.30;;;;;;4990606;28;20026;-84
2021/10/08 05:36:07;;;;;;;8.73;6.40;;;10.40;96.30;;;;;;4994231;28;20030;-84
2021/10/08 05:38:33;;;;;;;11.60;7.00;;;10.40;96.30;;;;;;4993146;28;20018;-83
2021/10/08 05:41:00;;;;;;;9.23;6.82;;;10.40;96.30;;;;;;4994874;28;20018;-83
2021/10/08 05:43:27;;;;;;;10.15;7.15;;;10.40;96.40;;;;;;4996353;28;20081;-83
2021/10/08 05:45:54;;;;;;;9.63;6.53;;;10.40;96.50;;;;;;5010701;28;20104;-83
2021/10/08 05:48:20;;;;;;;11.15;7.35;;;10.40;96.50;;;;;;4992291;28;20030;-83
2021/10/08 05:50:46;;;;;;;12.63;7.32;;;10.40;96.30;;;;;;4993197;28;20035;-83
2021/10/08 05:53:11;;;;;;;8.13;6.90;;;10.40;96.40;;;;;;4994834;28;20543;-83
2021/10/08 05:55:39;;;;;;;10.95;6.70;;;10.40;96.30;;;;;;5003208;28;20054;-83
2021/10/08 05:58:08;;;;;;;11.20;6.75;;;10.50;96.30;;;;;;4989729;28;20089;-83
2021/10/08 06:00:37;;;;;;;12.55;6.85;;;10.50;96.40;;;;;;4993732;28;20049;-83
2021/10/08 06:03:04;;;;;;;11.77;7.80;;;10.50;96.50;;;;;;4992644;28;20084;-83
2021/10/08 06:05:34;;;;;;;11.32;6.82;;;10.50;96.40;;;;;;4994156;28;20041;-83
2021/10/08 06:08:00;;;;;;;12.85;8.18;;;10.50;96.40;;;;;;4991123;28;20080;-84
2021/10/08 06:10:26;;;;;;;16.23;8.55;;;10.50;96.30;;;;;;4998808;28;20396;-83
2021/10/08 06:12:51;;;;;;;10.77;7.22;;;10.50;96.30;;;;;;4998721;28;20034;-84
2021/10/08 06:15:17;;;;;;;12.60;8.07;;;10.60;96.20;;;;;;4995160;28;20030;-84
2021/10/08 06:17:43;;;;;;;13.60;8.23;;;10.60;96.30;;;;;;5001794;28;20025;-84
2021/10/08 06:20:09;;;;;;;12.35;8.18;;;10.60;96.60;;;;;;4994219;28;20180;-84
2021/10/08 06:22:36;;;;;;;11.18;8.23;;;10.70;96.00;;;;;;4992378;28;20065;-83
2021/10/08 06:25:04;;;;;;;13.13;8.18;;;10.60;96.00;;;;;;5007354;28;20038;-83
2021/10/08 06:27:30;;;;;;;12.27;8.18;;;10.70;95.70;;;;;;4994035;28;20156;-83
2021/10/08 06:29:56;;;;;;;13.27;8.73;;;10.70;95.90;;;;;;4995241;28;20408;-83
2021/10/08 06:32:22;;;;;;;12.63;8.35;;;10.70;96.00;;;;;;4996172;28;20027;-80
2021/10/08 06:34:48;;;;;;;10.93;7.72;;;10.60;95.90;;;;;;4997122;28;20026;-81
2021/10/08 06:37:13;;;;;;;10.10;7.63;;;10.60;96.10;;;;;;5001090;28;20041;-83
2021/10/08 06:39:39;;;;;;;11.20;7.30;;;10.70;95.70;;;;;;4993672;28;20027;-82
2021/10/08 06:42:05;;;;;;;12.60;8.23;;;10.60;96.00;;;;;;4995283;28;20030;-82
2021/10/08 06:44:31;;;;;;;12.93;8.32;;;10.70;96.10;;;;;;4992584;28;20042;-81
2021/10/08 06:46:57;;;;;;;12.18;7.43;;;10.70;96.30;;;;;;4993970;28;20085;-80
2021/10/08 06:49:23;;;;;;;12.57;7.68;;;10.70;96.20;;;;;;4993500;28;20026;-79
2021/10/08 06:51:49;;;;;;;11.13;6.78;;;10.70;96.20;;;;;;4991647;28;20371;-77
2021/10/08 06:54:14;;;;;;;11.57;7.78;;;10.70;95.80;;;;;;4993369;28;20018;-76
2021/10/08 06:56:40;;;;;;;11.57;7.40;;;10.70;95.80;;;;;;4991782;28;20105;-76
2021/10/08 06:59:06;;;;;;;10.63;7.43;;;10.70;96.10;;;;;;4992253;28;20073;-77
2021/10/08 07:01:32;;;;;;;9.30;6.85;;;10.70;96.20;;;;;;4990809;28;20453;-76
2021/10/08 07:03:59;;;;;;;14.82;8.43;;;10.80;96.20;;;;;;4986103;28;20126;-76
2021/10/08 07:06:24;;;;;;;10.05;7.45;;;10.80;96.00;;;;;;4991250;28;20076;-75
2021/10/08 07:08:50;;;;;;;12.55;7.68;;;10.80;96.00;;;;;;4993270;28;20034;-76
2021/10/08 07:11:16;;;;;;;13.55;8.05;;;10.80;96.40;;;;;;4990958;28;20050;-76
2021/10/08 07:13:42;;;;;;;10.20;7.28;;;10.80;95.90;;;;;;4991931;28;20037;-81
2021/10/08 07:16:07;;;;;;;12.13;7.40;;;10.80;95.90;;;;;;4994157;28;20037;-81
2021/10/08 07:18:34;;;;;;;12.02;7.90;;;10.80;96.20;;;;;;4995321;28;20022;-81
2021/10/08 07:21:05;;;;;;;10.93;7.40;;;10.80;96.30;;;;;;4995112;28;20026;-82
2021/10/08 07:23:34;;;;;;;10.65;6.90;;;10.80;96.20;;;;;;4998235;28;20478;-81
2021/10/08 07:26:00;;;;;;;11.95;7.90;;;10.80;96.00;;;;;;4993958;28;21144;-81
2021/10/08 07:28:25;;;;;;;11.32;7.22;;;10.80;96.10;;;;;;4994346;28;20026;-82
2021/10/08 07:30:51;;;;;;;12.65;7.50;;;10.80;95.80;;;;;;4993185;28;20076;-81
2021/10/08 07:33:17;;;;;;;14.45;8.00;;;10.80;96.20;;;;;;4994297;28;20026;-81
2021/10/08 07:35:43;;;;;;;37.35;8.95;;;10.90;95.90;;;;;;4990357;28;20042;-82
2021/10/08 07:38:09;;;;;;;16.88;8.15;;;10.90;95.60;;;;;;4999606;28;20038;-82
2021/10/08 07:40:35;;;;;;;12.38;7.97;;;10.90;96.00;;;;;;4996374;28;20485;-81
2021/10/08 07:43:02;;;;;;;11.23;7.50;;;10.90;96.00;;;;;;4993696;28;20115;-81
2021/10/08 07:45:27;;;;;;;11.15;7.60;;;10.90;95.60;;;;;;4984687;28;20039;-82
2021/10/08 07:47:53;;;;;;;12.20;7.13;;;10.90;95.90;;;;;;4996092;28;20484;-82
2021/10/08 07:50:19;;;;;;;13.73;8.70;;;11.00;95.50;;;;;;4993824;28;20624;-81
2021/10/08 07:52:45;;;;;;;14.27;8.25;;;11.00;95.80;;;;;;4993138;28;20306;-82
2021/10/08 07:55:11;;;;;;;13.23;8.50;;;11.00;96.10;;;;;;5007000;28;20771;-82
2021/10/08 07:57:38;;;;;;;11.68;7.70;;;11.10;95.50;;;;;;5000478;28;20030;-81
2021/10/08 08:00:07;;;;;;;12.73;7.70;;;11.10;95.30;;;;;;4994199;28;20330;-82
2021/10/08 08:02:32;;;;;;;14.30;8.75;;;11.10;95.40;;;;;;4995512;28;20342;-81
2021/10/08 08:04:58;;;;;;;12.98;8.00;;;11.10;95.50;;;;;;4996476;28;20022;-82
2021/10/08 08:07:24;;;;;;;13.65;8.85;;;11.20;95.20;;;;;;5010439;28;20022;-81
2021/10/08 08:09:50;;;;;;;12.25;8.18;;;11.20;95.10;;;;;;5014264;28;20022;-81
2021/10/08 08:12:18;;;;;;;15.32;8.60;;;11.20;95.30;;;;;;5006233;28;20128;-82
2021/10/08 08:14:44;;;;;;;11.45;8.00;;;11.30;95.50;;;;;;4995217;28;20381;-82
2021/10/08 08:17:10;;;;;;;14.45;8.50;;;11.30;95.20;;;;;;4995947;28;20037;-82
2021/10/08 08:19:35;;;;;;;16.92;9.10;;;11.40;95.10;;;;;;4995002;28;20030;-82
2021/10/08 08:22:01;;;;;;;11.32;8.50;;;11.40;95.70;;;;;;4989781;28;20478;-82
2021/10/08 08:24:27;;;;;;;13.27;8.05;;;11.40;94.60;;;;;;4993228;28;20030;-82
2021/10/08 08:26:53;;;;;;;12.27;8.15;;;11.40;94.60;;;;;;4990876;28;20065;-82
2021/10/08 08:29:19;;;;;;;12.73;8.50;;;11.40;94.70;;;;;;4994895;28;20030;-82
2021/10/08 08:31:44;;;;;;;13.75;8.10;;;11.40;94.80;;;;;;4994109;28;20066;-82
2021/10/08 08:34:10;;;;;;;10.65;7.25;;;11.50;95.30;;;;;;4994438;28;20045;-82
2021/10/08 08:36:35;;;;;;;11.55;7.05;;;11.50;95.10;;;;;;4994207;28;20528;-82
2021/10/08 08:39:07;;;;;;;11.70;7.32;;;11.50;95.20;;;;;;5001265;28;20034;-82
2021/10/08 08:41:33;;;;;;;13.18;8.13;;;11.50;94.70;;;;;;4988175;28;20023;-82
2021/10/08 08:44:02;;;;;;;14.25;8.68;;;11.60;95.00;;;;;;4988518;28;20062;-82
2021/10/08 08:46:29;;;;;;;65.78;11.13;;;11.60;95.20;;;;;;4995240;28;20022;-82
2021/10/08 08:48:55;;;;;;;95.35;14.82;;;11.70;94.90;;;;;;4992923;28;20066;-83
2021/10/08 08:51:25;;;;;;;197.27;25.42;;;11.70;95.00;;;;;;4994523;28;20089;-82
2021/10/08 08:53:57;;;;;;;49.63;10.30;;;11.80;94.70;;;;;;4998048;28;20033;-83
2021/10/08 08:56:23;;;;;;;58.70;11.45;;;11.80;94.90;;;;;;4990557;28;20034;-82
2021/10/08 08:59:04;;;;;;;33.08;9.93;;;11.80;94.60;;;;;;4986622;28;20096;-83
2021/10/08 09:01:30;;;;;;;13.93;8.70;;;11.90;94.10;;;;;;4994286;28;20030;-83
2021/10/08 09:04:07;;;;;;;16.55;8.82;;;11.90;94.80;;;;;;4994887;28;20030;-81
2021/10/08 09:06:36;;;;;;;14.13;8.55;;;11.90;94.40;;;;;;4994134;28;20023;-82
2021/10/08 09:09:19;;;;;;;13.45;8.43;;;11.90;94.00;;;;;;4995735;28;20679;-82
2021/10/08 09:11:46;;;;;;;14.93;8.20;;;11.90;94.90;;;;;;4990823;28;20050;-82
2021/10/08 09:14:18;;;;;;;16.48;8.68;;;12.00;94.90;;;;;;4997400;28;20428;-83
2021/10/08 09:17:17;;;;;;;16.98;9.57;;;12.00;94.20;;;;;;4993483;28;20030;-82
2021/10/08 09:19:46;;;;;;;16.23;9.55;;;12.10;94.90;;;;;;4982986;28;20042;-82
2021/10/08 09:22:13;;;;;;;20.27;14.93;;;12.20;95.10;;;;;;4996922;28;20470;-82
2021/10/08 09:24:39;;;;;;;13.63;8.40;;;12.20;94.70;;;;;;4998679;28;20015;-81
2021/10/08 09:27:10;;;;;;;16.42;9.50;;;12.40;94.40;;;;;;5005005;28;20039;-80
2021/10/08 09:29:36;;;;;;;15.70;9.73;;;12.40;93.80;;;;;;4988977;28;20085;-85
2021/10/08 09:32:02;;;;;;;15.32;9.75;;;12.40;93.80;;;;;;4989203;28;20519;-83
2021/10/08 09:34:29;;;;;;;16.38;9.30;;;12.40;93.30;;;;;;4996529;28;20034;-82
2021/10/08 09:37:03;;;;;;;16.02;9.68;;;12.30;93.30;;;;;;4996199;28;20030;-82
2021/10/08 09:39:34;;;;;;;15.73;9.07;;;12.40;93.90;;;;;;4995041;28;20512;-83
2021/10/08 09:42:05;;;;;;;18.42;9.27;;;12.40;93.60;;;;;;4997635;28;20085;-83
2021/10/08 09:44:32;;;;;;;16.13;9.27;;;12.40;92.90;;;;;;4998922;28;20072;-83
2021/10/08 09:47:09;;;;;;;20.88;10.90;;;12.40;93.00;;;;;;4993744;28;20088;-83
2021/10/08 09:49:35;;;;;;;15.10;9.43;;;12.40;92.80;;;;;;4995483;28;20036;-83
2021/10/08 09:52:18;;;;;;;16.48;9.43;;;12.50;93.30;;;;;;4990753;28;20031;-83
2021/10/08 09:55:11;;;;;;;16.05;9.25;;;12.50;92.90;;;;;;5003036;28;20070;-83
2021/10/08 09:57:50;;;;;;;17.08;9.43;;;12.50;93.40;;;;;;4983588;28;20050;-83
2021/10/08 10:00:46;;;;;;;15.00;9.45;;;12.50;93.20;;;;;;5008662;28;20058;-82
2021/10/08 10:03:15;;;;;;;18.70;9.65;;;12.60;94.00;;;;;;5002984;28;20034;-83
2021/10/08 10:05:41;;;;;;;19.75;10.05;;;12.50;93.30;;;;;;4996331;28;20061;-83
2021/10/08 10:08:09;;;;;;;14.95;9.80;;;12.50;93.20;;;;;;5012333;28;20030;-83
2021/10/08 10:10:36;;;;;;;18.42;9.07;;;12.50;92.90;;;;;;4996590;28;20030;-83
2021/10/08 10:13:04;;;;;;;19.17;10.13;;;12.50;92.90;;;;;;5007871;28;20045;-83
2021/10/08 10:15:30;;;;;;;17.88;10.85;;;12.50;93.10;;;;;;5009193;28;20092;-83
2021/10/08 10:18:03;;;;;;;21.67;11.18;;;12.50;93.40;;;;;;5006405;28;20049;-83
2021/10/08 10:20:32;;;;;;;22.98;11.10;;;12.50;93.30;;;;;;4995074;28;20022;-83
2021/10/08 10:22:59;;;;;;;22.58;11.40;;;12.50;92.90;;;;;;4996718;28;20031;-83
2021/10/08 10:25:24;;;;;;;22.33;11.38;;;12.50;92.90;;;;;;4995916;28;20022;-83
2021/10/08 10:27:51;;;;;;;21.85;11.32;;;12.60;93.30;;;;;;5000938;28;20168;-83
2021/10/08 10:30:19;;;;;;;22.10;11.15;;;12.60;92.70;;;;;;4996134;28;20054;-83
2021/10/08 10:32:46;;;;;;;21.02;11.73;;;12.70;94.30;;;;;;4996099;28;20033;-83
2021/10/08 10:35:38;;;;;;;20.27;10.98;;;12.80;93.50;;;;;;4995981;28;20392;-83
2021/10/08 10:38:25;;;;;;;20.33;11.55;;;12.80;92.40;;;;;;4996458;28;20105;-83
2021/10/08 10:41:09;;;;;;;22.98;11.50;;;12.70;92.30;;;;;;4994512;28;20029;-83
2021/10/08 10:43:40;;;;;;;20.08;11.32;;;12.70;93.00;;;;;;4993747;28;20049;-83
2021/10/08 10:51:56;;;;;;;15.70;9.48;;;12.60;92.30;;;;;;4990809;28;20088;-83
2021/10/08 10:54:34;;;;;;;18.30;11.00;;;12.60;93.30;;;;;;4996074;28;20022;-83
2021/10/08 10:57:04;;;;;;;19.65;9.93;;;12.50;93.10;;;;;;5004944;28;20108;-82
2021/10/08 10:59:31;;;;;;;17.00;10.18;;;12.50;93.40;;;;;;4992912;28;20122;-82
2021/10/08 11:02:12;;;;;;;19.30;10.13;;;12.50;93.10;;;;;;4993070;28;20442;-83
2021/10/08 11:04:47;;;;;;;17.13;10.20;;;12.60;93.20;;;;;;4984708;28;20061;-83
2021/10/08 11:07:17;;;;;;;19.58;11.07;;;12.60;94.10;;;;;;4998074;28;20493;-83
2021/10/08 11:10:04;;;;;;;19.73;10.52;;;12.50;93.10;;;;;;4996478;28;20030;-82
2021/10/08 11:12:41;;;;;;;20.23;10.52;;;12.60;94.10;;;;;;5005082;28;20093;-83
2021/10/08 11:15:19;;;;;;;20.02;10.23;;;12.60;93.90;;;;;;4993957;28;20050;-83
2021/10/08 11:17:49;;;;;;;17.40;10.07;;;12.70;93.70;;;;;;4993813;28;20505;-84
2021/10/08 11:20:30;;;;;;;18.58;10.52;;;12.70;93.70;;;;;;4995733;28;20022;-83
2021/10/08 11:23:00;;;;;;;19.42;10.75;;;12.80;93.20;;;;;;5000460;28;20224;-83
2021/10/08 11:25:27;;;;;;;17.58;10.43;;;12.80;93.40;;;;;;4993891;28;20405;-82
2021/10/08 11:27:53;;;;;;;19.88;10.70;;;12.90;93.80;;;;;;4984747;28;20026;-83
2021/10/08 11:30:20;;;;;;;19.35;11.10;;;12.90;92.70;;;;;;4995086;28;20056;-82
2021/10/08 11:32:48;;;;;;;17.95;9.80;;;12.90;92.50;;;;;;4992279;28;20030;-82
2021/10/08 11:35:23;;;;;;;18.35;10.73;;;12.80;92.90;;;;;;4994468;28;20029;-83
2021/10/08 11:37:49;;;;;;;17.23;10.10;;;12.80;93.00;;;;;;4993040;28;20040;-82
2021/10/08 11:40:39;;;;;;;15.50;10.25;;;12.90;93.40;;;;;;4993535;28;20121;-83
2021/10/08 11:43:18;;;;;;;18.33;10.73;;;13.10;93.20;;;;;;4995712;28;20061;-83
2021/10/08 11:45:48;;;;;;;17.13;9.43;;;13.10;92.90;;;;;;4992664;28;20073;-82
2021/10/08 11:48:21;;;;;;;15.77;9.07;;;13.10;92.20;;;;;;4982670;28;20029;-82
2021/10/08 11:53:15;;;;;;;13.65;9.20;;;13.20;91.40;;;;;;4996228;28;20404;-83
2021/10/08 11:55:41;;;;;;;13.70;7.95;;;13.20;92.20;;;;;;4992805;28;20121;-82
2021/10/08 11:58:11;;;;;;;12.68;8.73;;;13.30;91.30;;;;;;4994627;28;20504;-82
2021/10/08 12:00:47;;;;;;;17.23;9.02;;;13.40;91.40;;;;;;4994729;28;20029;-84
2021/10/08 12:03:19;;;;;;;10.98;7.57;;;13.60;91.50;;;;;;4995166;28;20034;-83
2021/10/08 12:05:49;;;;;;;13.70;8.45;;;13.40;89.70;;;;;;4994522;28;20018;-82
2021/10/08 12:08:21;;;;;;;11.20;7.65;;;13.40;90.00;;;;;;5009257;28;20042;-82
2021/10/08 12:11:10;;;;;;;17.55;8.75;;;13.40;90.10;;;;;;4994025;28;20042;-82
2021/10/08 12:13:47;;;;;;;12.60;7.03;;;13.40;91.10;;;;;;4993594;28;20130;-83
2021/10/08 12:16:16;;;;;;;12.70;8.05;;;13.60;91.20;;;;;;4997027;28;20027;-83
2021/10/08 12:18:56;;;;;;;12.88;8.27;;;13.80;89.60;;;;;;4999348;28;20489;-82
2021/10/08 12:21:24;;;;;;;11.73;8.20;;;14.00;90.10;;;;;;4982784;28;20023;-82
2021/10/08 12:24:13;;;;;;;12.45;7.10;;;14.00;90.20;;;;;;4982894;28;20501;-82
2021/10/08 12:26:43;;;;;;;11.13;7.32;;;14.00;87.30;;;;;;5001040;28;20041;-82
2021/10/08 12:29:11;;;;;;;14.02;7.80;;;14.10;89.60;;;;;;4993413;28;20041;-82
2021/10/08 12:31:58;;;;;;;11.35;6.80;;;14.10;89.00;;;;;;4992860;28;20038;-82
2021/10/08 12:34:45;;;;;;;11.73;7.15;;;14.10;86.60;;;;;;4993520;28;20502;-82
2021/10/08 12:37:13;;;;;;;10.43;7.05;;;14.10;87.80;;;;;;4995544;28;20468;-82
2021/10/08 12:39:40;;;;;;;11.27;6.80;;;14.20;86.80;;;;;;4996476;28;20158;-82
2021/10/08 12:42:24;;;;;;;11.38;6.28;;;14.20;85.00;;;;;;4984282;28;20030;-82
2021/10/08 12:44:52;;;;;;;11.45;6.45;;;14.10;84.30;;;;;;4986372;28;20108;-82
2021/10/08 12:47:24;;;;;;;10.32;6.80;;;14.10;84.30;;;;;;4997111;28;20026;-82
2021/10/08 12:49:58;;;;;;;10.80;7.72;;;14.10;84.10;;;;;;4998237;28;20057;-82
2021/10/08 12:52:59;;;;;;;11.95;7.60;;;14.10;84.30;;;;;;4999644;28;20026;-82
2021/10/08 12:55:25;;;;;;;10.18;6.47;;;14.30;86.20;;;;;;4948176;29;20142;-83
2021/10/08 12:58:11;;;;;;;10.35;6.45;;;14.20;84.20;;;;;;4968441;28;20132;-82